Tiempo atmosférico en la estación meteorológica de Roncesvalles, Navarra (940 m.)



Fecha
DESCASC
Temp. máxima en grados centígrados (hora)
DESCASC
Temp. mínima en grados centígrados (hora)
DESCASC
Temp. media en grados centígrados
DESCASC
Racha de viento máxima en m/sg (hora)
DESCASC
Velocidad máxima media en intervalos de 10 minutos(hora)
DESCASC
Precipitaciones diarias en mm
DESCASC
Precipitaciones de 00:00 a 06:00 en mm
DESCASC
Precipitaciones de 06:00 a 12:00 en mm
DESCASC
Precipitaciones de 12:00 a 18:00 en mm
DESCASC
Precipitaciones de 18:00 a 24:00 en mm
DESCASC
17-10-2019 15.4 (16:50) 8.1 (08:30) 11.8 7.5 (13:10) 4.72 (14:50) 2 0 2 0 0
16-10-2019 14.9 (16:00) 5.7 (08:20) 10.3 11.11 (14:20) 6.11 (14:10) 0 0 0 0 0
15-10-2019 12.4 (15:40) 4.2 (05:30) 8.3 7.22 (13:30) 3.89 (13:30) 1.6 1.4 0 0.2 0
14-10-2019 18.3 (09:50) 7.4 (23:59) 12.8 18.33 (14:00) 9.72 (14:00) 17.8 0 0 0.8 17
13-10-2019 21.9 (14:30) 14.6 (00:00) 18.3 16.94 (11:00) 9.44 (11:20) 0 0 0 0 0
12-10-2019 21.9 (16:10) 14.3 (00:00) 18.1 11.11 (13:50) 6.11 (16:20) 1.2 0 0 0 1.2
11-10-2019 22.3 (17:00) 7 (00:00) 14.6 7.22 (12:30) 4.72 (12:10) 0 0 0 0 0
10-10-2019 14.3 (15:50) 6 (00:00) 10.2 8.06 (16:50) 4.17 (16:30) 0 0 0 0 0
09-10-2019 13.4 (00:00) 8.1 (00:00) 10.8 8.61 (15:00) 4.17 (14:40) 2 1 0.2 0.6 0.2
08-10-2019 23.5 (16:20) 6.7 (00:00) 15.1 10.83 (18:10) 5.28 (18:20) 0.4 0 0 0 0.4
07-10-2019 14 (15:30) 7.2 (00:00) 10.6 8.89 (16:20) 4.17 (16:30) 0.2 0 0.2 0 0
06-10-2019 12.6 (11:50) 8.9 (00:00) 10.8 10 (03:20) 4.17 (03:10) 5.2 0 0 3.8 1.4
05-10-2019 13.8 (16:50) 9.3 (04:30) 11.6 10.28 (15:30) 5.56 (15:00) 0 0 0 0 0
04-10-2019 15.6 (13:40) 8.7 (00:00) 12.2 6.94 (17:10) 4.17 (18:20) 3.4 0 0.8 1.2 1.4
03-10-2019 16.5 (14:00) 7.8 (00:00) 12.2 8.33 (10:50) 4.44 (11:00) 0.8 0.8 0 0 0
02-10-2019 11.7 (00:00) 9.7 (00:00) 10.7 10.56 (01:40) 2.78 (17:00) 39.4 7.6 19.2 9.4 3.2
01-10-2019 19.3 (12:00) 10.2 (00:00) 14.7 7.78 (13:20) 3.89 (13:20) 6 0 0 0 6
30-09-2019 24.4 (17:20) 10.4 (00:00) 17.4 6.67 (00:10) 3.61 (00:10) 0 0 0 0 0
29-09-2019 24.5 (16:00) 12.3 (00:00) 18.4 9.17 (18:10) 4.72 (19:40) 0 0 0 0 0
28-09-2019 22.3 (16:40) 10.4 (00:00) 16.3 8.33 (15:00) 4.17 (15:30) 0 0 0 0 0
27-09-2019 20.3 (14:30) 8.1 (00:00) 14.2 8.61 (18:20) 5 (18:20) 0 0 0 0 0
26-09-2019 22.5 (17:10) 7.7 (00:00) 15.1 7.78 (19:00) 4.17 (18:50) 0 0 0 0 0
25-09-2019 15.4 (14:10) 10.8 (00:00) 13.1 8.61 (03:00) 3.89 (03:20) 0 0 0 0 0
24-09-2019 21.8 (15:40) 11.7 (00:00) 16.7 7.78 (13:50) 4.72 (13:50) 0 0 0 0 0
23-09-2019 18.1 (16:10) 6.7 (00:00) 12.4 8.33 (16:10) 4.72 (15:30) 0 0 0 0 0
22-09-2019 17.3 (01:10) 11 (00:00) 14.1 12.22 (00:30) 6.11 (02:10) 15.4 0 15.4 0 0
21-09-2019 20 (15:10) 13.5 (00:00) 16.8 13.61 (00:10) 7.22 (13:00) 3.4 2.8 0.6 0 0
20-09-2019 24.4 (16:10) 12.4 (00:00) 18.4 11.94 (21:40) 6.11 (23:50) 0 0 0 0 0

Gráficas

Temp. máximas Temp. mínimas Temp. medias Precipitaciones Rachas de viento máximas Velocidades máximas media en intervalos de 10 minutos

Datos horarios

Fecha y hora oficial Temperatura (ºC) Velocidad del viento (km/h) Dirección del viento Racha (km/h) Dirección de racha Precipitación (mm) Presión (hPa) Tendencia (hPa) Humedad (%)
2019-10-19 23:00:00 13.4 21 Sur 50 Sudoeste 0.4 -- -- 76
2019-10-19 22:00:00 13.9 17 Sur 43 Sur 0 -- -- 68
2019-10-19 21:00:00 13.9 21 Sur 39 Sudoeste 0 -- -- 66
2019-10-19 20:00:00 13.4 19 Sur 39 Sur 0 -- -- 70
2019-10-19 19:00:00 13.4 23 Sur 44 Sur 0 -- -- 69
2019-10-19 18:00:00 13.2 12 Sudoeste 48 Sudoeste 0 -- -- 68
2019-10-19 17:00:00 14.4 19 Sur 50 Sur 0 -- -- 64
2019-10-19 16:00:00 14.8 15 Sur 39 Sur 0 -- -- 68
2019-10-19 15:00:00 13.6 18 Sudoeste 41 Sur 0 -- -- 75
2019-10-19 14:00:00 14 18 Sur 31 Sur 0 -- -- 75
2019-10-19 13:00:00 12.5 23 Sur 35 Sur 0 -- -- 78
2019-10-19 12:00:00 12.4 15 Sur 32 Sur 0 -- -- 82
2019-10-19 11:00:00 12.2 15 Sur 32 Sur 0 -- -- 87
2019-10-19 10:00:00 11.9 13 Sur 26 Sur 0 -- -- 93
2019-10-19 09:00:00 10.7 5 Sur 12 Sudoeste 0.2 -- -- 100
2019-10-19 08:00:00 9.9 0 Calma 5 Sur 0.4 -- -- 98
2019-10-19 07:00:00 11 3 Sur 8 Sudoeste 0 -- -- 91
2019-10-19 06:00:00 11.6 3 Sudoeste 18 Sudoeste 0 -- -- 92
2019-10-19 05:00:00 12.1 5 Sudoeste 18 Oeste 0 -- -- 99
2019-10-19 04:00:00 12.9 8 Sudoeste 23 Sur 0 -- -- 93
2019-10-19 03:00:00 12.9 8 Sudoeste 27 Sudoeste 0 -- -- 93
2019-10-19 02:00:00 13.2 11 Sudoeste 25 Sur 0.2 -- -- 92
2019-10-19 01:00:00 12.3 6 Sudoeste 16 Sudoeste 0 -- -- 96
2019-10-19 00:00:00 12.3 6 Sur 40 Sur 0.4 -- -- 93
2019-10-18 23:00:00 13.1 10 Sudoeste 32 Sur 0.2 -- -- 86
2019-10-18 22:00:00 12.2 5 Sudoeste 13 Sudeste 0 -- -- 93
2019-10-18 21:00:00 12.3 0 Calma 9 Sur 0 -- -- 95
2019-10-18 20:00:00 13.2 6 Sur 15 Sudeste 0 -- -- 93
2019-10-18 19:00:00 13 3 Sudoeste 13 Sur 0 -- -- 94
2019-10-18 18:00:00 13.5 4 Sudoeste 14 Sudoeste 0 -- -- 91
2019-10-18 17:00:00 14.3 4 Sudoeste 14 Sur 0 -- -- 85
2019-10-18 16:00:00 15.2 7 Sudoeste 18 Sudoeste 0 -- -- 79
2019-10-18 15:00:00 15.4 6 Sudoeste 22 Sur 0 -- -- 75
2019-10-18 14:00:00 14.8 12 Sur 19 Sur 0 -- -- 85
2019-10-18 13:00:00 14.2 5 Sur 14 Sur 0 -- -- 88
2019-10-18 12:00:00 12.4 2 Sudoeste 7 Sudoeste 0 -- -- 100
2019-10-18 11:00:00 11.5 3 Este 5 Este 0 -- -- 100
2019-10-18 10:00:00 11.8 0 Calma 5 Oeste 0 -- -- 100
2019-10-18 09:00:00 11.3 0 Calma 6 Oeste 0 -- -- 100
2019-10-18 08:00:00 11.2 0 Calma 6 Este 0 -- -- 100
2019-10-18 07:00:00 11 2 Sudoeste 8 Sudeste 0 -- -- 100
2019-10-18 06:00:00 11.4 3 Sudeste 12 Este 0 -- -- 97
2019-10-18 05:00:00 10.7 2 Norte 13 Este 6 -- -- 100
2019-10-18 04:00:00 12.2 2 Sudeste 12 Sudeste 0 -- -- 87
2019-10-18 03:00:00 11.7 0 Calma 11 Sur 0 -- -- 89
2019-10-18 02:00:00 11.4 3 Sur 12 Sudoeste 0 -- -- 88
2019-10-18 01:00:00 11.4 3 Sudeste 14 Este 0 -- -- 87
2019-10-18 00:00:00 11.7 4 Sur 15 Sudoeste 0 -- -- 84
2019-10-17 23:00:00 11.1 4 Nordeste 11 Nordeste 0 -- -- 85
2019-10-17 22:00:00 10.3 2 Nordeste 8 Este 0 -- -- 90
2019-10-17 21:00:00 10.5 2 Norte 6 Noroeste 0 -- -- 91
2019-10-17 20:00:00 12.6 3 Oeste 13 Sur 0 -- -- 80
2019-10-17 19:00:00 13.5 4 Sudoeste 13 Sur 0 -- -- 77
2019-10-17 18:00:00 14.9 8 Sur 22 Sudeste 0 -- -- 72
2019-10-17 17:00:00 15.4 12 Sur 20 Sur 0 -- -- 71
2019-10-17 16:00:00 14.5 12 Sur 26 Sudoeste 0 -- -- 75
2019-10-17 15:00:00 14.2 15 Sur 27 Sur 0 -- -- 72
2019-10-17 14:00:00 14.2 13 Sur 27 Sur 0 -- -- 72
2019-10-17 13:00:00 13.1 13 Sur 27 Sur 0 -- -- 71
2019-10-17 12:00:00 11.4 6 Sudeste 14 Sudeste 0 -- -- 79
2019-10-17 11:00:00 10.8 4 Sudeste 12 Este 0 -- -- 82
2019-10-17 10:00:00 10.2 5 Sudeste 16 Sudeste 0 -- -- 83
2019-10-17 09:00:00 8.7 3 Sudeste 10 Sudeste 0.6 -- -- 95
2019-10-17 08:00:00 8.3 2 Norte 6 Sudoeste 1.2 -- -- 97
2019-10-17 07:00:00 9.8 2 Sudoeste 14 Sur 0.2 -- -- 85
2019-10-17 06:00:00 11.6 8 Sudeste 17 Sudeste 0 -- -- 66
2019-10-17 05:00:00 11.3 5 Sudeste 15 Sudeste 0 -- -- 68
2019-10-17 04:00:00 11.3 4 Sur 15 Sudoeste 0 -- -- 70
2019-10-17 03:00:00 12.3 6 Sur 15 Sudeste 0 -- -- 64
2019-10-17 02:00:00 12.4 7 Sur 15 Sur 0 -- -- 62
2019-10-17 01:00:00 10.9 3 Oeste 13 Este 0 -- -- 71
2019-10-17 00:00:00 10.6 2 Norte 7 Este 0 -- -- 75
2019-10-16 23:00:00 10 0 Calma 9 Sudeste 0 -- -- 76
2019-10-16 22:00:00 9.5 0 Calma 8 Nordeste 0 -- -- 77
2019-10-16 21:00:00 10.5 0 Calma 4 Sudeste 0 -- -- 76
2019-10-16 20:00:00 10.5 0 Calma 5 Sudeste 0 -- -- 76
2019-10-16 19:00:00 12.4 4 Sudeste 23 Sur 0 -- -- 67
2019-10-16 18:00:00 14.1 11 Sur 24 Sur 0 -- -- 63
2019-10-16 17:00:00 14.3 12 Sudoeste 32 Sur 0 -- -- 60
2019-10-16 16:00:00 14.9 15 Sudoeste 33 Sur 0 -- -- 57
2019-10-16 15:00:00 14.3 18 Sur 40 Sur 0 -- -- 63
2019-10-16 14:00:00 13.5 16 Sur 32 Sur 0 -- -- 70
2019-10-16 13:00:00 10.5 15 Sur 34 Sur 0 -- -- 75
2019-10-16 12:00:00 10.7 17 Sur 32 Sur 0 -- -- 72
2019-10-16 11:00:00 10.5 16 Sur 33 Sur 0 -- -- 74
2019-10-16 10:00:00 10.1 17 Sur 28 Sur 0 -- -- 71
2019-10-16 09:00:00 6.6 3 Sudoeste 12 Sudoeste 0 -- -- 86
2019-10-16 08:00:00 6.4 3 Sudoeste 18 Sudeste 0 -- -- 86
2019-10-16 07:00:00 7.9 5 Sudoeste 19 Sur 0 -- -- 78
2019-10-16 06:00:00 7.7 6 Sudoeste 22 Sur 0 -- -- 80
2019-10-16 05:00:00 8.6 9 Sur 22 Sur 0 -- -- 73
2019-10-16 04:00:00 8.4 8 Sur 20 Sudeste 0 -- -- 74
2019-10-16 03:00:00 6.9 2 Oeste 13 Sudoeste 0 -- -- 82
2019-10-16 02:00:00 7 0 Calma 10 Sudoeste 0 -- -- 84
2019-10-16 01:00:00 6.4 5 Sudoeste 12 Sudoeste 0 -- -- 89
2019-10-16 00:00:00 6 2 Noroeste 4 Sudoeste 0 -- -- 95
2019-10-15 23:00:00 6.5 0 Calma 5 Oeste 0 -- -- 91
2019-10-15 22:00:00 5.9 3 Noroeste 4 Oeste 0 -- -- 98
2019-10-15 21:00:00 5.8 0 Calma 5 Norte 0 -- -- 99
2019-10-15 20:00:00 6.5 4 Norte 5 Norte 0 -- -- 97
2019-10-15 19:00:00 8.4 0 Calma 4 Sur 0 -- -- 93
2019-10-15 18:00:00 10.5 2 Sudoeste 9 Sur 0 -- -- 76
2019-10-15 17:00:00 10.7 3 Sudoeste 14 Sudoeste 0 -- -- 74
2019-10-15 16:00:00 11.2 12 Sur 21 Sur 0.2 -- -- 71
2019-10-15 15:00:00 10.3 10 Sur 17 Sudoeste 0 -- -- 77
2019-10-15 14:00:00 9 6 Sudoeste 26 Sur 0 -- -- 82
2019-10-15 13:00:00 8.5 9 Sur 18 Sur 0 -- -- 86
2019-10-15 12:00:00 8.4 9 Sur 15 Sur 0 -- -- 87
2019-10-15 11:00:00 7.1 2 Este 10 Sudoeste 0 -- -- 92
2019-10-15 10:00:00 5.4 3 Sudoeste 6 Sudoeste 0 -- -- 99
2019-10-15 09:00:00 5.2 0 Calma 4 Sudeste 0 -- -- 100
2019-10-15 08:00:00 5.3 2 Sudeste 4 Sudeste 0 -- -- 100
2019-10-15 07:00:00 5.2 0 Calma 3 Este 0 -- -- 100
2019-10-15 06:00:00 4.9 0 Calma 3 Noroeste 0 -- -- 100
2019-10-15 05:00:00 4.8 0 Calma 20 Oeste 0 -- -- 97
2019-10-15 04:00:00 5.6 2 Sudoeste 10 Oeste 0 -- -- 94
2019-10-15 03:00:00 6.1 5 Sur 15 Sudoeste 0 -- -- 99
2019-10-15 02:00:00 6.3 0 Calma 14 Sudoeste 1.2 -- -- 99
2019-10-15 01:00:00 7.2 0 Calma 6 Sudoeste 0.2 -- -- 100
2019-10-15 00:00:00 7.4 2 Sudoeste 5 Sudeste 1.6 -- -- 100
2019-10-14 23:00:00 7.6 2 Sudoeste 9 Sur 1.4 -- -- 100
2019-10-14 22:00:00 8.2 5 Sur 13 Sur 1.2 -- -- 100
2019-10-14 21:00:00 8.8 6 Sur 40 Sur 12.8 -- -- 100
2019-10-14 20:00:00 13.9 5 Este 18 Sur 0 -- -- 90
2019-10-14 19:00:00 14.6 6 Sur 35 Sudoeste 0 -- -- 85
2019-10-14 18:00:00 15.3 14 Sur 40 Sur 0 -- -- 83
2019-10-14 17:00:00 12.3 8 Sudoeste 51 Sudoeste 0.8 -- -- 98
2019-10-14 16:00:00 15.8 22 Sur 59 Sur 0 -- -- 76
2019-10-14 15:00:00 16.1 35 Sur 61 Sur 0 -- -- 75
2019-10-14 14:00:00 16.3 35 Sur 66 Sur 0 -- -- 73
2019-10-14 13:00:00 16.5 29 Sur 58 Sur 0 -- -- 73
2019-10-14 12:00:00 17.1 26 Sur 51 Sur 0 -- -- 71
2019-10-14 11:00:00 17.6 27 Sur 62 Sudoeste 0 -- -- 67
2019-10-14 10:00:00 18.2 30 Sur 63 Sur 0 -- -- 61
2019-10-14 09:00:00 17.9 30 Sur 61 Sur 0 -- -- 62
2019-10-14 08:00:00 17 19 Sur 59 Sur 0 -- -- 66
2019-10-14 07:00:00 16.4 16 Sur 35 Sudoeste 0 -- -- 68
2019-10-14 06:00:00 16.3 14 Sur 33 Sur 0 -- -- 69
2019-10-14 05:00:00 15.9 13 Sur 32 Sudeste 0 -- -- 72
2019-10-14 04:00:00 15.9 11 Sur 31 Sur 0 -- -- 75
2019-10-14 03:00:00 16 9 Sur 28 Sur 0 -- -- 74
2019-10-14 02:00:00 16.9 18 Sur 42 Sur 0 -- -- 72
2019-10-14 01:00:00 17.4 25 Sur 50 Sur 0 -- -- 75
2019-10-14 00:00:00 17.5 19 Sur 37 Sur 0 -- -- 75
2019-10-13 23:00:00 18.3 19 Sur 36 Sudoeste 0 -- -- 70
2019-10-13 22:00:00 18.7 16 Sur 37 Sur 0 -- -- 65
2019-10-13 21:00:00 19 18 Sur 39 Sur 0 -- -- 62
2019-10-13 20:00:00 19.3 15 Sur 33 Sudoeste 0 -- -- 62
2019-10-13 19:00:00 20.1 18 Sur 33 Sur 0 -- -- 56
2019-10-13 18:00:00 20.5 20 Sur 38 Sur 0 -- -- 55
2019-10-13 17:00:00 21.3 19 Sur 38 Sur 0 -- -- 54
2019-10-13 16:00:00 21.4 19 Sudoeste 46 Sudoeste 0 -- -- 52
2019-10-13 15:00:00 21.5 22 Sur 43 Sudoeste 0 -- -- 59
2019-10-13 14:00:00 21.1 24 Sur 49 Sur 0 -- -- 61
2019-10-13 13:00:00 19.6 29 Sur 55 Sur 0 -- -- 70
2019-10-13 12:00:00 18.1 32 Sur 61 Sur 0 -- -- 73
2019-10-13 11:00:00 17.4 31 Sur 61 Sur 0 -- -- 74
2019-10-13 10:00:00 16.6 25 Sur 49 Sudeste 0 -- -- 75
2019-10-13 09:00:00 15.2 18 Sur 35 Sur 0 -- -- 80
2019-10-13 08:00:00 15 15 Sur 29 Sur 0 -- -- 80
2019-10-13 07:00:00 15.3 10 Sur 27 Sur 0 -- -- 77
2019-10-13 06:00:00 15.5 8 Sur 26 Sur 0 -- -- 75
2019-10-13 05:00:00 15.3 6 Sur 31 Sur 0 -- -- 79
2019-10-13 04:00:00 15.8 13 Sur 31 Sur 0 -- -- 78
2019-10-13 03:00:00 17 22 Sur 40 Sudoeste 0 -- -- 74
2019-10-13 02:00:00 16.6 8 Sur 23 Sudeste 0 -- -- 76
2019-10-13 01:00:00 16.7 7 Sudeste 17 Sudoeste 0 -- -- 77
2019-10-13 00:00:00 14.6 2 Oeste 12 Sudeste 0 -- -- 91
2019-10-12 23:00:00 16.5 4 Este 18 Sudeste 0 -- -- 81
2019-10-12 22:00:00 15.8 5 Este 14 Sudeste 0 -- -- 87
2019-10-12 21:00:00 15 4 Nordeste 18 Oeste 1.2 -- -- 93
2019-10-12 20:00:00 19.1 6 Sudoeste 17 Sur 0 -- -- 64
2019-10-12 19:00:00 18.9 4 Sur 18 Sudoeste 0 -- -- 66
2019-10-12 18:00:00 20.5 9 Sur 26 Sudoeste 0 -- -- 61
2019-10-12 17:00:00 20.6 9 Sur 34 Sur 0 -- -- 65
2019-10-12 16:00:00 21.7 17 Sur 38 Sudoeste 0 -- -- 60
2019-10-12 15:00:00 21 16 Sudoeste 32 Sudoeste 0 -- -- 62
2019-10-12 14:00:00 21.4 21 Sur 40 Sur 0 -- -- 62
2019-10-12 13:00:00 20.5 20 Sur 35 Sur 0 -- -- 70
2019-10-12 12:00:00 18.7 12 Sur 33 Sur 0 -- -- 72
2019-10-12 11:00:00 17.6 5 Sudoeste 21 Sudoeste 0 -- -- 79
2019-10-12 10:00:00 17.1 8 Sudoeste 28 Sur 0 -- -- 79
2019-10-12 09:00:00 15.2 0 Calma 18 Sudeste 0 -- -- 89
2019-10-12 08:00:00 15.2 4 Sudeste 14 Sudeste 0 -- -- 88
2019-10-12 07:00:00 14.6 3 Sudoeste 12 Oeste 0 -- -- 91
2019-10-12 06:00:00 14.7 3 Oeste 19 Este 0 -- -- 91
2019-10-12 05:00:00 16.6 6 Sudeste 17 Sudeste 0 -- -- 81
2019-10-12 04:00:00 17.4 8 Sur 26 Sudeste 0 -- -- 78
2019-10-12 03:00:00 17.5 8 Sur 28 Sur 0 -- -- 76
2019-10-12 02:00:00 18 9 Sudoeste 30 Sur 0 -- -- 74
2019-10-12 01:00:00 17.3 9 Sudoeste 24 Sur 0 -- -- 77
2019-10-12 00:00:00 14.9 4 Oeste 8 Oeste 0 -- -- 88
2019-10-11 23:00:00 15.9 3 Oeste 10 Este 0 -- -- 83
2019-10-11 22:00:00 15.2 2 Noroeste 6 Nordeste 0 -- -- 88
2019-10-11 21:00:00 14.9 3 Noroeste 5 Norte 0 -- -- 90
2019-10-11 20:00:00 15.8 4 Noroeste 6 Noroeste 0 -- -- 86
2019-10-11 19:00:00 17 2 Noroeste 15 Sudoeste 0 -- -- 81
2019-10-11 18:00:00 21.8 8 Sur 21 Sudoeste 0 -- -- 57
2019-10-11 17:00:00 22.3 13 Sur 24 Sur 0 -- -- 57
2019-10-11 16:00:00 22 13 Sur 23 Sur 0 -- -- 57
2019-10-11 15:00:00 21.2 10 Sur 22 Sudoeste 0 -- -- 59
2019-10-11 14:00:00 20.3 13 Sur 24 Sur 0 -- -- 62
2019-10-11 13:00:00 19.6 14 Sur 26 Sur 0 -- -- 65
2019-10-11 12:00:00 18.5 11 Sur 23 Sur 0 -- -- 68
2019-10-11 11:00:00 16.8 6 Sur 12 Sur 0 -- -- 61
2019-10-11 10:00:00 15.7 4 Sudeste 9 Sudeste 0 -- -- 60
2019-10-11 09:00:00 12.2 2 Nordeste 7 Nordeste 0 -- -- 69
2019-10-11 08:00:00 10.6 2 Noroeste 5 Norte 0 -- -- 72
2019-10-11 07:00:00 9.5 0 Calma 5 Norte 0 -- -- 81
2019-10-11 06:00:00 9.5 2 Norte 6 Sudeste 0 -- -- 82
2019-10-11 05:00:00 10.3 2 Sudeste 7 Nordeste 0 -- -- 74
2019-10-11 04:00:00 10 2 Nordeste 7 Sur 0 -- -- 75
2019-10-11 03:00:00 9.5 2 Norte 9 Nordeste 0 -- -- 82
2019-10-11 02:00:00 7.6 0 Calma 5 Este 0 -- -- 95
2019-10-11 01:00:00 7.9 2 Noroeste 5 Noroeste 0 -- -- 100
2019-10-11 00:00:00 7 0 Calma 4 Norte 0 -- -- 100
2019-10-10 23:00:00 7.5 0 Calma 3 Norte 0 -- -- 100
2019-10-10 22:00:00 7.8 0 Calma 3 Norte 0 -- -- 100
2019-10-10 21:00:00 8.4 0 Calma 3 Noroeste 0 -- -- 100
2019-10-10 20:00:00 9.9 3 Noroeste 18 Nordeste 0 -- -- 94
2019-10-10 19:00:00 11.6 8 Norte 22 Nordeste 0 -- -- 84
2019-10-10 18:00:00 13.2 10 Norte 25 Nordeste 0 -- -- 79
2019-10-10 17:00:00 13.8 14 Norte 29 Norte 0 -- -- 76
2019-10-10 16:00:00 14.1 14 Norte 24 Norte 0 -- -- 77
2019-10-10 15:00:00 13.9 13 Norte 23 Nordeste 0 -- -- 76
2019-10-10 14:00:00 13.7 12 Norte 24 Norte 0 -- -- 78
2019-10-10 13:00:00 12.8 13 Norte 25 Norte 0 -- -- 78
2019-10-10 12:00:00 13 6 Noroeste 21 Noroeste 0 -- -- 77
2019-10-10 11:00:00 12.3 5 Este 19 Este 0 -- -- 76
2019-10-10 10:00:00 10.2 9 Este 19 Este 0 -- -- 88
2019-10-10 09:00:00 7.9 4 Sur 20 Norte 0 -- -- 95
2019-10-10 08:00:00 6.9 6 Noroeste 13 Norte 0 -- -- 100
2019-10-10 07:00:00 6.1 3 Norte 5 Nordeste 0 -- -- 100
2019-10-10 06:00:00 6.3 4 Norte 6 Norte 0 -- -- 100
2019-10-10 05:00:00 7.2 4 Norte 6 Norte 0 -- -- 100
2019-10-10 04:00:00 8.4 0 Calma 5 Este 0 -- -- 100
2019-10-10 03:00:00 7.9 0 Calma 4 Noroeste 0 -- -- 100
2019-10-10 02:00:00 8.3 0 Calma 3 Noroeste 0 -- -- 100
2019-10-10 01:00:00 8.4 0 Calma 6 Sudoeste 0 -- -- 100
2019-10-10 00:00:00 8.6 2 Norte 7 Nordeste 0 -- -- 100
2019-10-09 23:00:00 8.1 0 Calma 10 Oeste 0 -- -- 100
2019-10-09 22:00:00 8.9 2 Oeste 13 Este 0.2 -- -- 98
2019-10-09 21:00:00 9.3 3 Sur 11 Sudoeste 0 -- -- 98
2019-10-09 20:00:00 9.5 3 Sudoeste 11 Sur 0 -- -- 97
2019-10-09 19:00:00 9.5 3 Sudoeste 12 Nordeste 0 -- -- 97
2019-10-09 18:00:00 10.2 5 Sudeste 12 Noroeste 0 -- -- 92
2019-10-09 17:00:00 9.7 5 Noroeste 15 Norte 0.6 -- -- 96
2019-10-09 16:00:00 11.6 5 Este 22 Este 0 -- -- 90
2019-10-09 15:00:00 12.4 14 Nordeste 31 Nordeste 0 -- -- 91
2019-10-09 14:00:00 12 15 Norte 25 Noroeste 0 -- -- 87
2019-10-09 13:00:00 10.6 7 Norte 26 Norte 0 -- -- 91
2019-10-09 12:00:00 10.9 13 Nordeste 30 Nordeste 0.2 -- -- 88
2019-10-09 11:00:00 10.6 8 Nordeste 27 Norte 0 -- -- 93
2019-10-09 10:00:00 10.4 9 Norte 21 Nordeste 0 -- -- 100
2019-10-09 09:00:00 10.5 8 Nordeste 18 Norte 0 -- -- 100
2019-10-09 08:00:00 10.6 8 Nordeste 25 Nordeste 0 -- -- 100
2019-10-09 07:00:00 10.5 9 Norte 23 Norte 0 -- -- 100
2019-10-09 06:00:00 10.6 10 Norte 26 Norte 0 -- -- 100
2019-10-09 05:00:00 10.6 9 Norte 21 Nordeste 0.2 -- -- 100
2019-10-09 04:00:00 10.9 8 Norte 21 Norte 0 -- -- 100
2019-10-09 03:00:00 11.4 8 Norte 23 Norte 0 -- -- 100
2019-10-09 02:00:00 11.8 12 Norte 24 Noroeste 0.2 -- -- 100
2019-10-09 01:00:00 12.6 4 Este 10 Sudeste 0.6 -- -- 100
2019-10-09 00:00:00 13.4 5 Sudeste 19 Norte 0.4 -- -- 100
2019-10-08 23:00:00 14 5 Norte 15 Noroeste 0 -- -- 99
2019-10-08 22:00:00 14.4 8 Norte 21 Norte 0 -- -- 94
2019-10-08 21:00:00 14.4 5 Norte 26 Norte 0 -- -- 85
2019-10-08 20:00:00 15.1 13 Norte 30 Norte -- -- -- 74
2019-10-08 19:00:00 15.4 10 Norte 39 Norte 0 -- -- 76
2019-10-08 18:00:00 17.2 18 Norte 34 Norte 0 -- -- 64
2019-10-08 17:00:00 21.7 9 Noroeste 23 Norte 0 -- -- 51
2019-10-08 16:00:00 23 7 Sudoeste 18 Sudoeste 0 -- -- 44
2019-10-08 15:00:00 22.1 9 Sur 17 Sudoeste 0 -- -- 45
2019-10-08 14:00:00 21.4 11 Sur 18 Sur 0 -- -- 51
2019-10-08 13:00:00 21.3 10 Sur 19 Sur 0 -- -- 62
2019-10-08 12:00:00 19.9 6 Sur 12 Sur 0 -- -- 70
2019-10-08 11:00:00 19.1 2 Este 5 Sudeste 0 -- -- 75
2019-10-08 10:00:00 15 0 Calma 2 Nordeste 0 -- -- 88
2019-10-08 09:00:00 9.2 0 Calma 3 Norte 0 -- -- 99
2019-10-08 08:00:00 7.5 0 Calma 2 Sudoeste 0 -- -- 98
2019-10-08 07:00:00 9 0 Calma 3 Sudeste 0 -- -- 100
2019-10-08 06:00:00 8.1 0 Calma 8 Norte 0 -- -- 91
2019-10-08 05:00:00 7.1 0 Calma 3 Noroeste 0 -- -- 86
2019-10-08 04:00:00 7.8 0 Calma 7 Nordeste 0 -- -- 77
2019-10-08 03:00:00 7 0 Calma 6 Nordeste 0 -- -- 74
2019-10-08 02:00:00 7.2 2 Noroeste 4 Norte 0 -- -- 72
2019-10-08 01:00:00 6.8 0 Calma 5 Norte 0 -- -- 77
2019-10-08 00:00:00 7.2 0 Calma 18 Noroeste 0 -- -- 77
2019-10-07 23:00:00 9.5 4 Norte 13 Norte 0 -- -- 48
2019-10-07 22:00:00 9 4 Norte 8 Norte 0 -- -- 72
2019-10-07 21:00:00 9.3 4 Norte 10 Norte 0 -- -- 87
2019-10-07 20:00:00 10.9 4 Noroeste 19 Noroeste 0 -- -- 82
2019-10-07 19:00:00 12.1 8 Norte 21 Norte 0 -- -- 78
2019-10-07 18:00:00 13.1 10 Norte 27 Norte 0 -- -- 73
2019-10-07 17:00:00 13.6 14 Norte 32 Noroeste 0 -- -- 62
2019-10-07 16:00:00 13.9 12 Norte 27 Norte 0 -- -- 59
2019-10-07 15:00:00 13.8 12 Noroeste 28 Norte 0 -- -- 68
2019-10-07 14:00:00 13.5 12 Noroeste 30 Norte 0 -- -- 70
2019-10-07 13:00:00 12.8 7 Noroeste 23 Norte 0 -- -- 86
2019-10-07 12:00:00 10.5 10 Noroeste 26 Noroeste 0 -- -- 93
2019-10-07 11:00:00 10.3 8 Este 27 Este 0 -- -- 94
2019-10-07 10:00:00 9.3 6 Este 23 Este 0 -- -- 98
2019-10-07 09:00:00 9 5 Sur 25 Este 0 -- -- 98
2019-10-07 08:00:00 8.8 8 Sudeste 18 Sudoeste 0.2 -- -- 99
2019-10-07 07:00:00 8.7 6 Sudoeste 14 Sudoeste 0 -- -- 100
2019-10-07 06:00:00 8.6 4 Sur 13 Sur 0 -- -- 100
2019-10-07 05:00:00 8.7 3 Sur 15 Sur 0 -- -- 100
2019-10-07 04:00:00 8.9 8 Sur 16 Sur 0 -- -- 100
2019-10-07 03:00:00 8.7 6 Sur 17 Este 0 -- -- 99
2019-10-07 02:00:00 8.8 6 Sur 21 Este 0 -- -- 98
2019-10-07 01:00:00 8.9 7 Sur 14 Sur 0 -- -- 96
2019-10-07 00:00:00 9.1 6 Sudoeste 19 Noroeste 0 -- -- 98
2019-10-06 23:00:00 9.5 6 Sur 22 Este 0 -- -- 97
2019-10-06 22:00:00 10.2 3 Sudoeste 16 Nordeste 0 -- -- 97
2019-10-06 21:00:00 10.6 7 Noroeste 27 Nordeste 1 -- -- 96
2019-10-06 20:00:00 10.8 4 Sur 15 Noroeste 0 -- -- 97
2019-10-06 19:00:00 10.8 5 Noroeste 35 Nordeste 0.4 -- -- 98
2019-10-06 18:00:00 10.9 6 Noroeste 22 Nordeste 1.4 -- -- 100
2019-10-06 17:00:00 11.8 3 Noroeste 21 Sudoeste 1 -- -- 99
2019-10-06 16:00:00 12.3 6 Nordeste 18 Nordeste 0.8 -- -- 98
2019-10-06 15:00:00 12.2 2 Nordeste 10 Nordeste 0.2 -- -- 99
2019-10-06 14:00:00 12 3 Noroeste 21 Norte 0.4 -- -- 97
2019-10-06 13:00:00 12.3 4 Norte 17 Noroeste 0 -- -- 94
2019-10-06 12:00:00 12.6 4 Noroeste 17 Norte 0 -- -- 90
2019-10-06 11:00:00 11.8 8 Norte 17 Norte 0 -- -- 89
2019-10-06 10:00:00 11.7 4 Norte 12 Nordeste 0 -- -- 83
2019-10-06 09:00:00 9.3 0 Calma 10 Sur 0 -- -- 96
2019-10-06 08:00:00 8.9 0 Calma 25 Norte 0 -- -- 96
2019-10-06 07:00:00 9.8 12 Norte 30 Norte 0 -- -- 91
2019-10-06 06:00:00 10.2 6 Sur 22 Norte 0 -- -- 95
2019-10-06 05:00:00 10.2 5 Sudeste 16 Nordeste 0 -- -- 97
2019-10-06 04:00:00 10.3 6 Norte 36 Norte 0 -- -- 97
2019-10-06 03:00:00 10.2 3 Oeste 15 Sur 0 -- -- 100
2019-10-06 02:00:00 10.8 11 Norte 30 Noroeste 0 -- -- 99
2019-10-06 01:00:00 10.9 0 Calma 13 Norte 0 -- -- 100
2019-10-06 00:00:00 11 8 Sudeste 21 Noroeste 0 -- -- 100
2019-10-05 23:00:00 11.2 7 Norte 27 Norte 0 -- -- 100
2019-10-05 22:00:00 11.3 8 Norte 32 Norte 0 -- -- 99
2019-10-05 21:00:00 11.5 17 Norte 33 Norte 0 -- -- 97
2019-10-05 20:00:00 11.4 16 Norte 33 Norte 0 -- -- 96
2019-10-05 19:00:00 11.8 14 Norte 30 Nordeste 0 -- -- 95
2019-10-05 18:00:00 13.1 17 Norte 32 Norte 0 -- -- 91
2019-10-05 17:00:00 13.7 15 Norte 30 Norte 0 -- -- 87
2019-10-05 16:00:00 13.3 18 Norte 37 Norte 0 -- -- 87
2019-10-05 15:00:00 13.4 20 Norte 33 Norte 0 -- -- 86
2019-10-05 14:00:00 13.2 17 Norte 30 Norte 0 -- -- 90
2019-10-05 13:00:00 12.5 15 Norte 27 Norte 0 -- -- 91
2019-10-05 12:00:00 12.7 11 Norte 31 Noroeste 0 -- -- 90
2019-10-05 11:00:00 11.5 8 Norte 20 Nordeste 0 -- -- 99
2019-10-05 10:00:00 10.6 5 Oeste 24 Norte 0 -- -- 100
2019-10-05 09:00:00 10.6 8 Este 21 Este 0 -- -- 100
2019-10-05 08:00:00 10.1 8 Sudeste 21 Este 0 -- -- 100
2019-10-05 07:00:00 10.2 9 Este 17 Este 0 -- -- 98
2019-10-05 06:00:00 9.9 4 Sudoeste 11 Nordeste 0 -- -- 100
2019-10-05 05:00:00 9.7 6 Este 17 Este 0 -- -- 100
2019-10-05 04:00:00 9.8 9 Este 18 Este 0 -- -- 100
2019-10-05 03:00:00 10.5 2 Sudoeste 9 Norte 0 -- -- 100
2019-10-05 02:00:00 10.8 3 Sudeste 10 Sudeste 0 -- -- 100
2019-10-05 01:00:00 10.7 4 Sur 18 Este 0 -- -- 100
2019-10-05 00:00:00 10.8 7 Sudeste 16 Este 0.4 -- -- 100
2019-10-04 23:00:00 11.1 5 Sudeste 16 Sudeste 0.2 -- -- 100
2019-10-04 22:00:00 11.2 8 Sudeste 16 Este 0.2 -- -- 100
2019-10-04 21:00:00 11.6 5 Sudoeste 12 Sur 0.4 -- -- 100
2019-10-04 20:00:00 11.8 3 Sudoeste 19 Noroeste 0 -- -- 100
2019-10-04 19:00:00 12 6 Norte 23 Noroeste 0.2 -- -- 100
2019-10-04 18:00:00 12.5 10 Norte 25 Norte 0.2 -- -- 100
2019-10-04 17:00:00 13.3 12 Norte 19 Norte 0.4 -- -- 98
2019-10-04 16:00:00 15.1 6 Norte 15 Nordeste 0 -- -- 92
2019-10-04 15:00:00 14.8 6 Norte 22 Norte 0 -- -- 94
2019-10-04 14:00:00 14.9 7 Nordeste 17 Nordeste 0.2 -- -- 96
2019-10-04 13:00:00 14.1 5 Nordeste 16 Nordeste 0.4 -- -- 98
2019-10-04 12:00:00 14.6 3 Nordeste 17 Nordeste 0.4 -- -- 97
2019-10-04 11:00:00 14.2 6 Nordeste 17 Nordeste 0.2 -- -- 98
2019-10-04 10:00:00 14.7 3 Norte 8 Norte 0 -- -- 96
2019-10-04 09:00:00 13.2 0 Calma 8 Norte 0 -- -- 100
2019-10-04 08:00:00 13.6 6 Norte 16 Norte 0.2 -- -- 99
2019-10-04 07:00:00 11.6 0 Calma 8 Nordeste 0 -- -- 100
2019-10-04 06:00:00 13.2 6 Nordeste 13 Nordeste 0 -- -- 100
2019-10-04 05:00:00 12.1 0 Calma 10 Este 0 -- -- 100
2019-10-04 04:00:00 11.7 2 Noroeste 10 Norte 0 -- -- 96
2019-10-04 03:00:00 11.7 4 Nordeste 16 Norte 0 -- -- 99
2019-10-04 02:00:00 11.3 5 Norte 14 Norte 0 -- -- 85
2019-10-04 01:00:00 9.2 6 Norte 10 Norte 0 -- -- 82
2019-10-04 00:00:00 9.7 4 Norte 14 Norte 0 -- -- 82
2019-10-03 23:00:00 9.3 4 Norte 10 Norte 0 -- -- 88
2019-10-03 22:00:00 9.4 5 Norte 10 Noroeste 0 -- -- 95
2019-10-03 21:00:00 9.5 3 Norte 8 Nordeste 0 -- -- 97
2019-10-03 20:00:00 11.1 3 Norte 17 Noroeste 0 -- -- 91
2019-10-03 19:00:00 12.1 4 Noroeste 18 Noroeste 0 -- -- 88
2019-10-03 18:00:00 14.7 4 Noroeste 18 Norte 0 -- -- 75
2019-10-03 17:00:00 15.2 6 Noroeste 24 Nordeste 0 -- -- 74
2019-10-03 16:00:00 14.6 13 Norte 26 Norte 0 -- -- 76
2019-10-03 15:00:00 14.6 8 Norte 22 Nordeste 0 -- -- 78
2019-10-03 14:00:00 16.5 6 Nordeste 28 Nordeste 0 -- -- 66
2019-10-03 13:00:00 13.3 11 Norte 24 Norte 0 -- -- 81
2019-10-03 12:00:00 12.3 9 Norte 24 Norte 0 -- -- 84
2019-10-03 11:00:00 10.3 16 Norte 30 Nordeste 0 -- -- 86
2019-10-03 10:00:00 9.8 5 Norte 19 Nordeste 0 -- -- 89
2019-10-03 09:00:00 8.3 3 Nordeste 17 Nordeste 0 -- -- 96
2019-10-03 08:00:00 8.3 8 Nordeste 23 Norte 0 -- -- 97
2019-10-03 07:00:00 8.2 4 Este 18 Sudeste 0 -- -- 98
2019-10-03 06:00:00 8.4 5 Sudeste 21 Este 0 -- -- 96
2019-10-03 05:00:00 9 9 Este 25 Este 0 -- -- 96
2019-10-03 04:00:00 9.4 11 Este 23 Este 0.2 -- -- 98
2019-10-03 03:00:00 9.5 4 Sudoeste 13 Sudoeste 0.4 -- -- 100
2019-10-03 02:00:00 9.6 4 Sudoeste 12 Sudoeste 0.2 -- -- 100
2019-10-03 01:00:00 9.7 5 Sudoeste 13 Noroeste 0 -- -- 100
2019-10-03 00:00:00 9.7 5 Noroeste 27 Norte 0 -- -- 98
2019-10-02 23:00:00 9.8 6 Oeste 16 Noroeste 0.2 -- -- 99
2019-10-02 22:00:00 9.8 5 Noroeste 20 Noroeste 0.2 -- -- 98
2019-10-02 21:00:00 9.8 7 Oeste 26 Noroeste 0 -- -- 99
2019-10-02 20:00:00 10.2 3 Sur 21 Noroeste 0.2 -- -- 99
2019-10-02 19:00:00 10.4 5 Sudoeste 16 Sudoeste 2.6 -- -- 100
2019-10-02 18:00:00 10.7 6 Sudoeste 19 Norte 0.2 -- -- 99
2019-10-02 17:00:00 11.3 10 Norte 22 Norte 0 -- -- 94
2019-10-02 16:00:00 11.1 8 Norte 21 Norte 0.8 -- -- 97
2019-10-02 15:00:00 11.7 6 Norte 20 Nordeste 2 -- -- 95
2019-10-02 14:00:00 11.1 7 Norte 24 Nordeste 2.6 -- -- 97
2019-10-02 13:00:00 10.7 5 Noroeste 23 Noroeste 3.8 -- -- 98
2019-10-02 12:00:00 10.9 7 Noroeste 23 Oeste 2 -- -- 97
2019-10-02 11:00:00 10.5 5 Noroeste 24 Nordeste 2 -- -- 98
2019-10-02 10:00:00 10.3 5 Noroeste 31 Nordeste 3 -- -- 98
2019-10-02 09:00:00 10.1 4 Oeste 25 Noroeste 2.2 -- -- 99
2019-10-02 08:00:00 10.1 6 Noroeste 23 Este 5.4 -- -- 99
2019-10-02 07:00:00 9.9 3 Oeste 14 Oeste 4.6 -- -- 100
2019-10-02 06:00:00 10 4 Sur 21 Noroeste 1.6 -- -- 99
2019-10-02 05:00:00 10.1 4 Norte 14 Sudoeste 2 -- -- 97
2019-10-02 04:00:00 10.1 3 Sudoeste 21 Este 0.2 -- -- 96
2019-10-02 03:00:00 10.4 3 Este 17 Oeste 0 -- -- 97
2019-10-02 02:00:00 11 4 Nordeste 38 Norte 0.4 -- -- 95
2019-10-02 01:00:00 11.2 6 Nordeste 22 Norte 3.4 -- -- 96
2019-10-02 00:00:00 11.7 4 Norte 14 Noroeste 2.6 -- -- 98
2019-10-01 23:00:00 11.8 5 Norte 19 Norte 2 -- -- 98
2019-10-01 22:00:00 11.9 4 Nordeste 23 Noroeste 1.2 -- -- 98
2019-10-01 21:00:00 12.3 5 Norte 17 Nordeste 0.2 -- -- 97
2019-10-01 20:00:00 12.2 6 Norte 26 Norte 0 -- -- 96
2019-10-01 19:00:00 13.3 8 Noroeste 21 Noroeste 0 -- -- 94
2019-10-01 18:00:00 14.4 8 Norte 26 Norte 0 -- -- 88
2019-10-01 17:00:00 15.6 14 Nordeste 23 Nordeste 0 -- -- 84
2019-10-01 16:00:00 16.9 11 Norte 25 Norte 0 -- -- 78
2019-10-01 15:00:00 16.1 12 Nordeste 27 Nordeste 0 -- -- 82
2019-10-01 14:00:00 17.2 12 Nordeste 28 Nordeste 0 -- -- 80
2019-10-01 13:00:00 17 12 Nordeste 23 Norte 0 -- -- 84
2019-10-01 12:00:00 19.3 10 Sur 15 Sur 0 -- -- 70
2019-10-01 11:00:00 18.1 6 Sur 11 Sudoeste 0 -- -- 72
2019-10-01 10:00:00 16.7 0 Calma 2 Sudeste 0 -- -- 83
2019-10-01 09:00:00 12.2 0 Calma 2 Norte 0 -- -- 97
2019-10-01 08:00:00 10.2 0 Calma 5 Norte 0 -- -- 98
2019-10-01 07:00:00 11.6 0 Calma 7 Norte 0 -- -- 92
2019-10-01 06:00:00 11.2 0 Calma 8 Norte 0 -- -- 95
2019-10-01 05:00:00 12.5 3 Norte 6 Norte 0 -- -- 88
2019-10-01 04:00:00 13 2 Noroeste 6 Norte 0 -- -- 88
2019-10-01 03:00:00 12.3 0 Calma 5 Noroeste 0 -- -- 96
2019-10-01 02:00:00 12 0 Calma 3 Norte 0 -- -- 98
2019-10-01 01:00:00 12.5 0 Calma 2 Norte 0 -- -- 99
2019-10-01 00:00:00 12.7 0 Calma 3 Nordeste 0 -- -- 99
2019-09-30 23:00:00 12.7 0 Calma 2 Norte 0 -- -- 100
2019-09-30 22:00:00 13.3 0 Calma 3 Norte 0 -- -- 98
2019-09-30 21:00:00 13.9 0 Calma 3 Norte 0 -- -- 96
2019-09-30 20:00:00 15.4 0 Calma 6 Norte 0 -- -- 91
2019-09-30 19:00:00 18.6 6 Norte 13 Norte 0 -- -- 80
2019-09-30 18:00:00 23 4 Norte 14 Sur 0 -- -- 59
2019-09-30 17:00:00 23.9 8 Sudoeste 23 Sudoeste 0 -- -- 48
2019-09-30 16:00:00 23.7 8 Sudoeste 23 Sur 0 -- -- 48
2019-09-30 15:00:00 23.9 7 Sudoeste 19 Sur 0 -- -- 48
2019-09-30 14:00:00 22.8 7 Sudoeste 21 Sudoeste 0 -- -- 53
2019-09-30 13:00:00 21.8 8 Sudoeste 17 Sur 0 -- -- 61
2019-09-30 12:00:00 20.4 6 Sur 14 Sudeste 0 -- -- 59
2019-09-30 11:00:00 17.8 4 Sur 6 Sur 0 -- -- 78
2019-09-30 10:00:00 14.4 2 Sur 4 Sur 0 -- -- 94
2019-09-30 09:00:00 11.8 0 Calma 2 Sudoeste 0 -- -- 100
2019-09-30 08:00:00 10.4 0 Calma 3 Oeste 0 -- -- 100
2019-09-30 07:00:00 11.1 0 Calma 13 Norte 0 -- -- 100
2019-09-30 06:00:00 11.4 3 Noroeste 14 Noroeste 0 -- -- 100
2019-09-30 05:00:00 12 3 Noroeste 21 Norte 0 -- -- 99
2019-09-30 04:00:00 13.1 6 Nordeste 16 Norte 0 -- -- 98
2019-09-30 03:00:00 13.7 8 Norte 21 Norte 0 -- -- 94
2019-09-30 02:00:00 13.8 8 Norte 21 Noroeste 0 -- -- 94
2019-09-30 01:00:00 13.4 6 Norte 24 Norte 0 -- -- 91
2019-09-30 00:00:00 14.2 13 Norte 26 Norte 0 -- -- 79
2019-09-29 23:00:00 14.4 4 Nordeste 23 Norte 0 -- -- 82
2019-09-29 22:00:00 15.4 14 Norte 28 Norte 0 -- -- 70
2019-09-29 21:00:00 15 15 Norte 32 Nordeste 0 -- -- 68
2019-09-29 20:00:00 15.5 17 Norte 32 Nordeste 0 -- -- 66
2019-09-29 19:00:00 17.6 16 Norte 33 Norte 0 -- -- 60
2019-09-29 18:00:00 20 14 Norte 24 Norte 0 -- -- 58
2019-09-29 17:00:00 24.4 6 Sudoeste 21 Sur 0 -- -- 39
2019-09-29 16:00:00 24.5 8 Sudoeste 24 Sur 0 -- -- 43
2019-09-29 15:00:00 23.4 13 Sur 25 Sur 0 -- -- 41
2019-09-29 14:00:00 23.1 11 Sudoeste 25 Sur 0 -- -- 44
2019-09-29 13:00:00 21.9 14 Sur 26 Sur 0 -- -- 49
2019-09-29 12:00:00 20.7 10 Sudoeste 20 Sudoeste 0 -- -- 61
2019-09-29 11:00:00 19.1 5 Sudoeste 11 Sudoeste 0 -- -- 67
2019-09-29 10:00:00 17 3 Sur 6 Oeste 0 -- -- 77
2019-09-29 09:00:00 13.3 0 Calma 6 Nordeste 0 -- -- 88
2019-09-29 08:00:00 12.9 4 Norte 8 Nordeste 0 -- -- 85
2019-09-29 07:00:00 13.3 3 Norte 6 Norte 0 -- -- 80
2019-09-29 06:00:00 12.5 3 Norte 5 Noroeste 0 -- -- 86
2019-09-29 05:00:00 13.2 2 Norte 5 Noroeste 0 -- -- 80
2019-09-29 04:00:00 13.6 0 Calma 6 Este 0 -- -- 78
2019-09-29 03:00:00 14.3 3 Nordeste 6 Nordeste 0 -- -- 75
2019-09-29 02:00:00 13.8 3 Norte 6 Noroeste 0 -- -- 75
2019-09-29 01:00:00 13.5 4 Norte 6 Norte 0 -- -- 78
2019-09-29 00:00:00 14.3 3 Noroeste 5 Norte 0 -- -- 75
2019-09-28 23:00:00 13.6 2 Norte 5 Norte 0 -- -- 79
2019-09-28 22:00:00 13.2 2 Noroeste 4 Noroeste 0 -- -- 80
2019-09-28 21:00:00 13.8 4 Noroeste 5 Norte 0 -- -- 81
2019-09-28 20:00:00 14.8 3 Noroeste 6 Sudoeste 0 -- -- 78
2019-09-28 19:00:00 18.9 3 Sudoeste 17 Sur 0 -- -- 59
2019-09-28 18:00:00 21.9 8 Sur 22 Sur 0 -- -- 51
2019-09-28 17:00:00 22.3 11 Sur 22 Sur 0 -- -- 49
2019-09-28 16:00:00 21.7 10 Sudoeste 26 Sur 0 -- -- 53
2019-09-28 15:00:00 21.3 12 Sur 30 Sur 0 -- -- 53
2019-09-28 14:00:00 20.6 9 Sur 20 Sur 0 -- -- 60
2019-09-28 13:00:00 19.6 6 Sur 15 Sudoeste 0 -- -- 67
2019-09-28 12:00:00 17.1 6 Sur 13 Sur 0 -- -- 73
2019-09-28 11:00:00 15.2 2 Sudeste 7 Sur 0 -- -- 84
2019-09-28 10:00:00 11.1 2 Sur 6 Sur 0 -- -- 100
2019-09-28 09:00:00 10.6 2 Este 6 Este 0 -- -- 100
2019-09-28 08:00:00 10.5 2 Nordeste 9 Nordeste 0 -- -- 100
2019-09-28 07:00:00 10.9 3 Norte 12 Norte 0 -- -- 100
2019-09-28 06:00:00 11.1 5 Nordeste 17 Norte 0 -- -- 100
2019-09-28 05:00:00 11.5 4 Este 15 Nordeste 0 -- -- 100
2019-09-28 04:00:00 11.9 5 Norte 12 Norte 0 -- -- 100
2019-09-28 03:00:00 12 0 Calma 9 Nordeste 0 -- -- 99
2019-09-28 02:00:00 11.9 4 Nordeste 13 Nordeste 0 -- -- 99
2019-09-28 01:00:00 12.1 6 Nordeste 15 Nordeste 0 -- -- 99
2019-09-28 00:00:00 12.2 7 Norte 21 Norte 0 -- -- 98
2019-09-27 23:00:00 12.5 5 Norte 19 Noroeste 0 -- -- 100
2019-09-27 22:00:00 13.2 5 Nordeste 19 Nordeste 0 -- -- 99
2019-09-27 21:00:00 13.4 8 Norte 26 Noroeste 0 -- -- 99
2019-09-27 20:00:00 13.7 13 Norte 28 Noroeste 0 -- -- 96
2019-09-27 19:00:00 14.6 14 Norte 31 Norte 0 -- -- 91
2019-09-27 18:00:00 15.8 17 Norte 29 Norte 0 -- -- 87
2019-09-27 17:00:00 16.7 17 Norte 28 Norte 0 -- -- 83
2019-09-27 16:00:00 18.2 15 Norte 25 Norte 0 -- -- 75
2019-09-27 15:00:00 19.1 11 Norte 21 Norte 0 -- -- 65
2019-09-27 14:00:00 19 8 Norte 19 Norte 0 -- -- 67
2019-09-27 13:00:00 19.7 4 Oeste 20 Sudoeste 0 -- -- 62
2019-09-27 12:00:00 18.6 4 Sudoeste 15 Nordeste 0 -- -- 63
2019-09-27 11:00:00 17.1 3 Sur 13 Sur 0 -- -- 71
2019-09-27 10:00:00 14.1 0 Calma 3 Sudoeste 0 -- -- 85
2019-09-27 09:00:00 10.6 0 Calma 3 Noroeste 0 -- -- 96
2019-09-27 08:00:00 8.1 0 Calma 4 Norte 0 -- -- 98
2019-09-27 07:00:00 8.2 0 Calma 5 Sur 0 -- -- 99
2019-09-27 06:00:00 9.2 2 Oeste 12 Nordeste 0 -- -- 94
2019-09-27 05:00:00 8.9 0 Calma 15 Noroeste 0 -- -- 98
2019-09-27 04:00:00 9.9 0 Calma 16 Noroeste 0 -- -- 97
2019-09-27 03:00:00 10.4 0 Calma 3 Norte 0 -- -- 100
2019-09-27 02:00:00 10.2 0 Calma 2 Norte 0 -- -- 100
2019-09-27 01:00:00 10.6 0 Calma 2 Noroeste 0 -- -- 100
2019-09-27 00:00:00 10.9 0 Calma 3 Noroeste 0 -- -- 100
2019-09-26 23:00:00 11.2 0 Calma 4 Norte 0 -- -- 100
2019-09-26 22:00:00 11.7 2 Norte 4 Norte 0 -- -- 100
2019-09-26 21:00:00 12.2 0 Calma 6 Nordeste 0 -- -- 98
2019-09-26 20:00:00 14.6 4 Norte 27 Norte 0 -- -- 94
2019-09-26 19:00:00 15.8 15 Norte 28 Norte 0 -- -- 90
2019-09-26 18:00:00 18.3 15 Norte 26 Norte 0 -- -- 78
2019-09-26 17:00:00 22.3 4 Oeste 13 Sudoeste 0 -- -- 51
2019-09-26 16:00:00 21.6 6 Oeste 17 Sudoeste 0 -- -- 54
2019-09-26 15:00:00 21.2 7 Sudoeste 21 Sur 0 -- -- 54
2019-09-26 14:00:00 20.6 11 Sur 20 Sur 0 -- -- 58
2019-09-26 13:00:00 19.6 6 Sudoeste 21 Sur 0 -- -- 62
2019-09-26 12:00:00 18.6 4 Sur 11 Sudoeste 0 -- -- 67
2019-09-26 11:00:00 15.9 3 Sur 5 Sur 0 -- -- 76
2019-09-26 10:00:00 13.2 0 Calma 2 Sudeste 0 -- -- 92
2019-09-26 09:00:00 10.4 0 Calma 4 Noroeste 0 -- -- 100
2019-09-26 08:00:00 7.9 0 Calma 3 Norte 0 -- -- 100
2019-09-26 07:00:00 7.7 0 Calma 3 Oeste 0 -- -- 100
2019-09-26 06:00:00 8 0 Calma 3 Noroeste 0 -- -- 100
2019-09-26 05:00:00 7.8 0 Calma 2 Noroeste 0 -- -- 100
2019-09-26 04:00:00 8.6 2 Norte 4 Nordeste 0 -- -- 100
2019-09-26 03:00:00 8.4 0 Calma 4 Noroeste 0 -- -- 100
2019-09-26 02:00:00 9.4 2 Norte 4 Norte 0 -- -- 98
2019-09-26 01:00:00 10.2 3 Norte 7 Norte 0 -- -- 95
2019-09-26 00:00:00 12.1 4 Este 10 Sudeste 0 -- -- 89
2019-09-25 23:00:00 12.2 5 Norte 18 Norte 0 -- -- 89
2019-09-25 22:00:00 11.9 5 Norte 18 Noroeste 0 -- -- 92
2019-09-25 21:00:00 11.9 6 Norte 19 Norte 0 -- -- 93
2019-09-25 20:00:00 11.9 7 Norte 16 Norte 0 -- -- 93
2019-09-25 19:00:00 13.1 4 Nordeste 9 Este 0 -- -- 84
2019-09-25 18:00:00 13.3 4 Nordeste 13 Nordeste 0 -- -- 83
2019-09-25 17:00:00 13.9 3 Nordeste 14 Noroeste 0 -- -- 78
2019-09-25 16:00:00 13.6 4 Nordeste 19 Nordeste 0 -- -- 80
2019-09-25 15:00:00 14.7 4 Oeste 17 Nordeste 0 -- -- 77
2019-09-25 14:00:00 14.6 8 Sudeste 15 Sudeste 0 -- -- 76
2019-09-25 13:00:00 14.4 8 Sudoeste 17 Sudoeste 0 -- -- 74
2019-09-25 12:00:00 14.2 5 Nordeste 19 Nordeste 0 -- -- 80
2019-09-25 11:00:00 12.7 8 Nordeste 20 Norte 0 -- -- 84
2019-09-25 10:00:00 12.4 10 Norte 24 Nordeste 0 -- -- 81
2019-09-25 09:00:00 11.4 3 Nordeste 21 Nordeste 0 -- -- 89
2019-09-25 08:00:00 11 8 Nordeste 19 Nordeste 0 -- -- 90
2019-09-25 07:00:00 10.9 4 Sudeste 9 Nordeste 0 -- -- 94
2019-09-25 06:00:00 10.8 5 Este 18 Nordeste 0 -- -- 94
2019-09-25 05:00:00 10.9 6 Nordeste 18 Norte 0 -- -- 90
2019-09-25 04:00:00 11.2 8 Norte 27 Nordeste 0 -- -- 88
2019-09-25 03:00:00 11.4 13 Nordeste 31 Nordeste 0 -- -- 87
2019-09-25 02:00:00 11 10 Nordeste 29 Nordeste 0 -- -- 95
2019-09-25 01:00:00 11.3 5 Norte 17 Noroeste 0 -- -- 97
2019-09-25 00:00:00 11.7 5 Nordeste 22 Norte 0 -- -- 96
2019-09-24 23:00:00 12.2 8 Norte 26 Nordeste 0 -- -- 95
2019-09-24 22:00:00 12.4 12 Norte 23 Norte 0 -- -- 96
2019-09-24 21:00:00 12.4 10 Norte 23 Norte 0 -- -- 98
2019-09-24 20:00:00 12.9 9 Norte 26 Nordeste 0 -- -- 100
2019-09-24 19:00:00 14.3 8 Norte 22 Norte 0 -- -- 97
2019-09-24 18:00:00 16.6 10 Norte 22 Oeste 0 -- -- 90
2019-09-24 17:00:00 18.6 6 Norte 19 Nordeste 0 -- -- 83
2019-09-24 16:00:00 20.2 4 Sudoeste 16 Sudoeste 0 -- -- 63
2019-09-24 15:00:00 20 7 Sudoeste 21 Sur 0 -- -- 61
2019-09-24 14:00:00 20.8 15 Sur 28 Sur 0 -- -- 57
2019-09-24 13:00:00 17.9 9 Sudoeste 23 Sur 0 -- -- 63
2019-09-24 12:00:00 17.3 11 Sudoeste 27 Sudoeste 0 -- -- 63
2019-09-24 11:00:00 16.5 8 Sur 16 Sudoeste 0 -- -- 69
2019-09-24 10:00:00 16.2 6 Sur 8 Sudoeste 0 -- -- 64
2019-09-24 09:00:00 13 0 Calma 8 Sudoeste 0 -- -- 83
2019-09-24 08:00:00 13.7 3 Sudeste 14 Este 0 -- -- 73
2019-09-24 07:00:00 14 4 Sudeste 16 Sudeste 0 -- -- 67
2019-09-24 06:00:00 13.7 5 Sudeste 15 Sudeste 0 -- -- 67
2019-09-24 05:00:00 13.9 4 Sur 17 Este 0 -- -- 66
2019-09-24 04:00:00 15.4 11 Sudeste 22 Sur 0 -- -- 59
2019-09-24 03:00:00 13.9 5 Sur 21 Sur 0 -- -- 65
2019-09-24 02:00:00 12.9 2 Oeste 8 Sudoeste 0 -- -- 76
2019-09-24 01:00:00 12.6 2 Oeste 5 Sudeste 0 -- -- 79
2019-09-24 00:00:00 12.7 0 Calma 5 Oeste 0 -- -- 78
2019-09-23 23:00:00 12.2 2 Noroeste 5 Norte 0 -- -- 81
2019-09-23 22:00:00 12.8 3 Norte 6 Nordeste 0 -- -- 85
2019-09-23 21:00:00 13.1 3 Norte 5 Norte 0 -- -- 82
2019-09-23 20:00:00 13.5 3 Norte 5 Norte 0 -- -- 80
2019-09-23 19:00:00 15.6 3 Sur 17 Sur 0 -- -- 72
2019-09-23 18:00:00 16.9 7 Sur 22 Sudoeste 0 -- -- 68
2019-09-23 17:00:00 17 6 Sudoeste 30 Sudoeste 0 -- -- 64
2019-09-23 16:00:00 17.7 14 Sur 26 Sur 0 -- -- 60
2019-09-23 15:00:00 16.9 13 Sur 29 Sur 0 -- -- 63
2019-09-23 14:00:00 16.1 12 Sur 22 Sudoeste 0 -- -- 65
2019-09-23 13:00:00 15.2 6 Sudoeste 19 Sur 0 -- -- 72
2019-09-23 12:00:00 15.7 6 Sur 14 Sudoeste 0 -- -- 73
2019-09-23 11:00:00 14.3 4 Sur 9 Sur 0 -- -- 75
2019-09-23 10:00:00 11.1 2 Sur 4 Sur 0 -- -- 92
2019-09-23 09:00:00 8 0 Calma 0 Calma 0 -- -- 100
2019-09-23 08:00:00 7 0 Calma 2 Norte 0 -- -- 100
2019-09-23 07:00:00 6.7 0 Calma 3 Norte 0 -- -- 100
2019-09-23 06:00:00 7.2 0 Calma 4 Norte 0 -- -- 100
2019-09-23 05:00:00 7.5 0 Calma 2 Norte 0 -- -- 100
2019-09-23 04:00:00 8.3 0 Calma 15 Noroeste 0 -- -- 100
2019-09-23 03:00:00 9.9 5 Noroeste 19 Norte 0 -- -- 98
2019-09-23 02:00:00 10.3 7 Norte 17 Norte 0 -- -- 100
2019-09-23 01:00:00 10.3 4 Nordeste 12 Nordeste 0 -- -- 99
2019-09-23 00:00:00 11 2 Nordeste 14 Este 0 -- -- 98
2019-09-22 23:00:00 11.2 4 Noroeste 21 Norte 0 -- -- 97
2019-09-22 22:00:00 11.3 9 Norte 20 Norte 0 -- -- 97
2019-09-22 21:00:00 11.7 13 Norte 24 Nordeste 0 -- -- 95
2019-09-22 20:00:00 12.4 13 Norte 23 Norte 0 -- -- 92
2019-09-22 19:00:00 13.1 13 Norte 24 Norte 0 -- -- 92
2019-09-22 18:00:00 15.9 8 Norte 17 Norte 0 -- -- 78
2019-09-22 17:00:00 15 6 Norte 17 Norte 0 -- -- 85
2019-09-22 16:00:00 15.7 7 Norte 18 Sudoeste 0 -- -- 81
2019-09-22 15:00:00 16.2 8 Sudoeste 18 Sudoeste 0 -- -- 70
2019-09-22 14:00:00 15.9 12 Sur 22 Sudoeste 0 -- -- 77
2019-09-22 13:00:00 15.1 10 Sur 19 Sudoeste 0 -- -- 87
2019-09-22 12:00:00 14.6 4 Sudoeste 9 Sudoeste 0 -- -- 95
2019-09-22 11:00:00 13.4 2 Sur 7 Noroeste 0.2 -- -- 100
2019-09-22 10:00:00 12.4 4 Noroeste 26 Norte 11.4 -- -- 100
2019-09-22 09:00:00 14.9 5 Oeste 13 Noroeste 0 -- -- 100
2019-09-22 08:00:00 14.7 0 Calma 8 Sur 1 -- -- 100
2019-09-22 07:00:00 14.8 2 Oeste 24 Sudoeste 2.8 -- -- 100
2019-09-22 06:00:00 15.7 6 Sur 18 Sudeste 0 -- -- 92
2019-09-22 05:00:00 16.3 6 Sur 24 Sur 0 -- -- 86
2019-09-22 04:00:00 16.6 11 Sur 31 Sur 0 -- -- 86
2019-09-22 03:00:00 17 12 Sur 40 Sur 0 -- -- 81
2019-09-22 02:00:00 16.7 19 Sur 38 Sur 0 -- -- 80
2019-09-22 01:00:00 17.2 21 Sur 44 Sur 0 -- -- 76
2019-09-22 00:00:00 17.1 20 Sur 37 Sudeste 0 -- -- 77
2019-09-21 23:00:00 16.8 14 Sur 32 Sudeste 0 -- -- 80
2019-09-21 22:00:00 17.8 15 Sur 33 Sur 0 -- -- 77
2019-09-21 21:00:00 18.4 17 Sur 32 Sur 0 -- -- 69
2019-09-21 20:00:00 18.6 17 Sur 29 Sur 0 -- -- 68
2019-09-21 19:00:00 18.6 14 Sur 30 Sur 0 -- -- 69
2019-09-21 18:00:00 19.1 17 Sur 34 Sudoeste 0 -- -- 67
2019-09-21 17:00:00 19.3 19 Sur 36 Sudoeste 0 -- -- 69
2019-09-21 16:00:00 19.6 15 Sudoeste 39 Sur 0 -- -- 64
2019-09-21 15:00:00 19.2 21 Sur 37 Sudoeste 0 -- -- 72
2019-09-21 14:00:00 18.5 22 Sur 40 Sur 0 -- -- 76
2019-09-21 13:00:00 18 26 Sur 40 Sur 0 -- -- 77
2019-09-21 12:00:00 17 13 Sur 34 Sur 0 -- -- 82
2019-09-21 11:00:00 16.5 11 Sudeste 27 Sudeste 0 -- -- 80
2019-09-21 10:00:00 14.8 6 Sudeste 27 Sudeste 0 -- -- 88
2019-09-21 09:00:00 14.3 8 Sudeste 24 Sur 0 -- -- 91
2019-09-21 08:00:00 14.3 12 Sur 26 Sur 0.2 -- -- 90
2019-09-21 07:00:00 13.9 13 Sur 24 Sudoeste 0.4 -- -- 93
2019-09-21 06:00:00 13.6 9 Sur 24 Sudeste 0.4 -- -- 95
2019-09-21 05:00:00 13.7 8 Sudeste 27 Sudeste 1 -- -- 93
2019-09-21 04:00:00 14.1 15 Sur 29 Sur 0 -- -- 91
2019-09-21 03:00:00 14.4 12 Sur 37 Sur 0.8 -- -- 92
2019-09-21 02:00:00 14.8 10 Sudeste 34 Sudeste 0.2 -- -- 90
2019-09-21 01:00:00 14.9 11 Sur 49 Sur 0.4 -- -- 91
2019-09-21 00:00:00 18.3 20 Sur 41 Sur 0 -- -- 69
2019-09-20 23:00:00 18.5 13 Sur 32 Sur 0 -- -- 72
2019-09-20 22:00:00 19.4 18 Sur 43 Sudeste 0 -- -- 66
2019-09-20 21:00:00 19.8 13 Sur 28 Sur 0 -- -- 61
2019-09-20 20:00:00 20.8 10 Sur 24 Sudoeste 0 -- -- 54
2019-09-20 19:00:00 21.9 9 Sur 27 Sur 0 -- -- 53
2019-09-20 18:00:00 23.2 13 Sur 32 Sur 0 -- -- 48
2019-09-20 17:00:00 23.9 17 Sur 35 Sudoeste 0 -- -- 49
2019-09-20 16:00:00 23.9 17 Sur 32 Sur 0 -- -- 49
2019-09-20 15:00:00 24.1 18 Sur 37 Sur 0 -- -- 49
2019-09-20 14:00:00 23.1 20 Sur 33 Sur 0 -- -- 52
2019-09-20 13:00:00 22.1 18 Sur 35 Sudoeste 0 -- -- 58
2019-09-20 12:00:00 21.5 17 Sur 35 Sur 0 -- -- 60
2019-09-20 11:00:00 19.9 14 Sur 29 Sur 0 -- -- 68
2019-09-20 10:00:00 18.3 9 Sudeste 24 Este 0 -- -- 73
2019-09-20 09:00:00 15.8 2 Sudeste 14 Sudeste 0 -- -- 80
2019-09-20 08:00:00 15.6 5 Este 12 Sudeste 0 -- -- 80
2019-09-20 07:00:00 14.1 2 Este 9 Sudeste 0 -- -- 87
2019-09-20 06:00:00 15.3 3 Nordeste 11 Norte 0 -- -- 83
2019-09-20 05:00:00 15.3 3 Noroeste 7 Noroeste 0 -- -- 83
2019-09-20 04:00:00 15.2 2 Norte 12 Nordeste 0 -- -- 84
2019-09-20 03:00:00 14.9 3 Nordeste 9 Este 0 -- -- 87
2019-09-20 02:00:00 14.1 3 Norte 8 Norte 0 -- -- 97
2019-09-20 01:00:00 13 2 Norte 4 Noroeste 0 -- -- 100
2019-09-20 00:00:00 12.9 0 Calma 4 Norte 0 -- -- 100